createdAt,value
2018-04-13T00:00:01.449Z,59.50
2018-04-13T00:02:28.989Z,59.50
2018-04-13T00:04:56.494Z,59.30
2018-04-13T00:07:24.017Z,59.40
2018-04-13T00:09:51.537Z,59.40
2018-04-13T00:12:19.813Z,59.50
2018-04-13T00:14:47.333Z,59.40
2018-04-13T00:17:14.865Z,59.10
2018-04-13T00:19:42.391Z,59.10
2018-04-13T00:22:10.661Z,59.40
2018-04-13T00:24:38.217Z,59.30
2018-04-13T00:27:05.722Z,59.60
2018-04-13T00:29:34.001Z,59.70
2018-04-13T00:32:02.298Z,59.50
2018-04-13T00:34:30.579Z,59.50
2018-04-13T00:36:58.849Z,59.80
2018-04-13T00:39:27.163Z,60.00
2018-04-13T00:41:54.676Z,60.00
2018-04-13T00:44:22.201Z,60.20
2018-04-13T00:46:49.765Z,60.50
2018-04-13T00:49:17.599Z,60.80
2018-04-13T00:51:45.871Z,60.60
2018-04-13T00:54:14.179Z,60.50
2018-04-13T00:56:41.701Z,60.50
2018-04-13T00:59:09.205Z,60.30
2018-04-13T01:01:36.747Z,60.00
2018-04-13T01:04:05.027Z,60.40
2018-04-13T01:06:33.311Z,60.40
2018-04-13T01:09:01.614Z,60.50
2018-04-13T01:11:29.125Z,60.40
2018-04-13T01:13:56.642Z,60.40
2018-04-13T01:16:24.205Z,61.10
2018-04-13T01:18:52.477Z,60.90
2018-04-13T01:21:19.987Z,60.80
2018-04-13T01:23:47.525Z,60.90
2018-04-13T01:26:15.040Z,61.20
2018-04-13T01:28:43.325Z,61.20
2018-04-13T01:31:11.680Z,61.10
2018-04-13T01:33:39.353Z,61.00
2018-04-13T01:36:06.896Z,61.20
2018-04-13T01:38:34.439Z,61.00
2018-04-13T01:41:01.970Z,60.30
2018-04-13T01:43:30.245Z,60.80
2018-04-13T01:48:33.284Z,61.80
2018-04-13T01:51:01.617Z,61.40
2018-04-13T01:53:29.159Z,61.40
2018-04-13T01:55:56.681Z,61.70
2018-04-13T01:58:25.915Z,61.80
2018-04-13T02:00:53.425Z,61.70
2018-04-13T02:03:20.950Z,61.90
2018-04-13T02:05:48.453Z,62.40
2018-04-13T02:08:15.967Z,61.70
2018-04-13T02:10:43.501Z,62.40
2018-04-13T02:13:11.806Z,61.80
2018-04-13T02:15:39.305Z,61.70
2018-04-13T02:18:06.846Z,61.80
2018-04-13T02:20:34.353Z,61.90
2018-04-13T02:23:01.866Z,61.60
2018-04-13T02:25:29.401Z,61.70
2018-04-13T02:27:57.669Z,62.30
2018-04-13T02:30:26.693Z,62.50
2018-04-13T02:32:54.981Z,62.60
2018-04-13T02:35:22.502Z,62.50
2018-04-13T02:37:50.022Z,62.50
2018-04-13T02:40:17.559Z,62.30
2018-04-13T02:42:45.839Z,63.60
2018-04-13T02:45:14.117Z,63.20
2018-04-13T02:47:42.416Z,63.30
2018-04-13T02:50:09.945Z,63.20
2018-04-13T02:52:37.496Z,63.20
2018-04-13T02:55:05.033Z,63.20
2018-04-13T02:57:32.561Z,63.10
2018-04-13T03:00:00.847Z,63.80
2018-04-13T03:02:29.150Z,63.60
2018-04-13T03:04:56.660Z,63.60
2018-04-13T03:07:24.168Z,64.00
2018-04-13T03:09:51.698Z,63.60
2018-04-13T03:12:19.202Z,63.90
2018-04-13T03:14:46.759Z,64.60
2018-04-13T03:17:14.384Z,63.50
2018-04-13T03:19:42.657Z,63.30
2018-04-13T03:22:10.178Z,63.30
2018-04-13T03:24:37.745Z,63.50
2018-04-13T03:27:05.302Z,63.50
2018-04-13T03:29:32.818Z,63.70
2018-04-13T03:32:01.107Z,64.20
2018-04-13T03:34:28.621Z,64.10
2018-04-13T03:36:56.121Z,63.80
2018-04-13T03:39:23.664Z,63.10
2018-04-13T03:41:51.257Z,63.20
2018-04-13T03:44:18.863Z,63.00
2018-04-13T03:46:46.389Z,63.50
2018-04-13T03:49:13.907Z,62.90
2018-04-13T03:51:41.430Z,63.30
2018-04-13T03:54:09.990Z,63.60
2018-04-13T03:56:37.500Z,63.60
2018-04-13T03:59:05.003Z,63.40
2018-04-13T04:01:32.528Z,63.30
2018-04-13T04:04:00.046Z,63.30
2018-04-13T04:06:27.549Z,64.10
2018-04-13T04:08:55.851Z,64.70
2018-04-13T04:11:23.364Z,64.70
2018-04-13T04:13:50.970Z,64.50
2018-04-13T04:16:18.516Z,65.00
2018-04-13T04:18:46.913Z,64.30
2018-04-13T04:21:27.146Z,64.40
2018-04-13T04:24:06.572Z,64.30
2018-04-13T04:26:45.836Z,65.30
2018-04-13T04:29:13.363Z,64.70
2018-04-13T04:31:40.877Z,64.50
2018-04-13T04:34:08.442Z,64.70
2018-04-13T04:36:35.955Z,64.20
2018-04-13T04:39:07.100Z,65.90
2018-04-13T04:41:34.633Z,65.10
2018-04-13T04:44:02.188Z,64.30
2018-04-13T04:46:29.695Z,64.30
2018-04-13T04:48:58.000Z,64.90
2018-04-13T04:51:26.410Z,64.80
2018-04-13T04:53:53.922Z,64.70
2018-04-13T04:56:21.512Z,63.70
2018-04-13T04:58:49.789Z,64.10
2018-04-13T05:01:18.069Z,65.10
2018-04-13T05:03:46.385Z,65.40
2018-04-13T05:06:13.952Z,65.40
2018-04-13T05:08:41.476Z,65.70
2018-04-13T05:11:09.785Z,63.80
2018-04-13T05:13:37.297Z,63.70
2018-04-13T05:16:04.821Z,65.10
2018-04-13T05:18:32.354Z,64.60
2018-04-13T05:21:00.634Z,64.60
2018-04-13T05:23:28.912Z,64.20
2018-04-13T05:25:57.241Z,63.50
2018-04-13T05:28:24.973Z,63.10
2018-04-13T05:30:52.718Z,63.60
2018-04-13T05:33:20.278Z,63.60
2018-04-13T05:35:47.783Z,64.40
2018-04-13T05:38:15.284Z,63.60
2018-04-13T05:40:42.825Z,63.70
2018-04-13T05:43:10.368Z,62.80
2018-04-13T05:45:38.690Z,63.00
2018-04-13T05:48:06.307Z,62.90
2018-04-13T05:50:33.901Z,63.40
2018-04-13T05:53:01.410Z,64.40
2018-04-13T05:55:28.946Z,63.40
2018-04-13T05:57:56.504Z,63.40
2018-04-13T06:00:24.004Z,64.70
2018-04-13T06:02:51.541Z,63.90
2018-04-13T06:05:19.045Z,62.50
2018-04-13T06:07:46.817Z,62.10
2018-04-13T06:10:15.159Z,62.40
2018-04-13T06:12:42.675Z,62.20
2018-04-13T06:15:11.101Z,63.10
2018-04-13T06:17:38.653Z,63.00
2018-04-13T06:20:06.189Z,62.40
2018-04-13T06:22:34.470Z,62.90
2018-04-13T06:25:02.771Z,63.50
2018-04-13T06:27:30.286Z,63.40
2018-04-13T06:29:59.313Z,63.20
2018-04-13T06:32:27.614Z,63.00
2018-04-13T06:34:55.184Z,63.00
2018-04-13T06:37:22.702Z,63.10
2018-04-13T06:39:50.255Z,63.90
2018-04-13T06:42:17.762Z,64.20
2018-04-13T06:44:46.036Z,64.40
2018-04-13T06:47:14.341Z,63.70
2018-04-13T06:49:41.857Z,63.60
2018-04-13T06:52:09.377Z,65.50
2018-04-13T06:54:37.006Z,65.00
2018-04-13T06:57:05.284Z,66.40
2018-04-13T06:59:34.477Z,67.60
2018-04-13T07:02:02.798Z,67.40
2018-04-13T07:04:30.312Z,67.30
2018-04-13T07:06:58.594Z,69.30
2018-04-13T07:09:26.889Z,65.50
2018-04-13T07:14:28.779Z,65.60
2018-04-13T07:16:57.093Z,65.50
2018-04-13T07:19:24.619Z,65.40
2018-04-13T07:21:52.935Z,65.80
2018-04-13T07:24:20.470Z,65.70
2018-04-13T07:26:48.865Z,64.60
2018-04-13T07:29:16.454Z,64.50
2018-04-13T07:31:44.375Z,64.30
2018-04-13T07:34:11.577Z,63.40
2018-04-13T07:36:39.509Z,64.90
2018-04-13T07:39:07.054Z,65.70
2018-04-13T07:41:35.558Z,65.40
2018-04-13T07:44:03.180Z,65.50
2018-04-13T07:46:30.713Z,66.20
2018-04-13T07:48:59.009Z,65.60
2018-04-13T07:51:26.566Z,65.60
2018-04-13T07:53:54.073Z,66.00
2018-04-13T07:56:21.604Z,65.90
2018-04-13T07:58:49.140Z,64.00
2018-04-13T08:01:17.502Z,63.20
2018-04-13T08:03:45.815Z,59.40
2018-04-13T08:06:14.181Z,55.10
2018-04-13T08:08:48.071Z,55.00
2018-04-13T08:11:31.115Z,48.90
2018-04-13T08:14:06.536Z,45.40
2018-04-13T08:16:34.698Z,45.50
2018-04-13T08:19:02.234Z,45.50
2018-04-13T08:21:29.750Z,46.20
2018-04-13T08:23:57.281Z,47.30
2018-04-13T08:26:24.798Z,44.20
2018-04-13T08:28:52.621Z,46.60
2018-04-13T08:31:20.172Z,44.10
2018-04-13T08:33:47.701Z,43.90
2018-04-13T08:36:15.990Z,37.50
2018-04-13T08:38:44.409Z,34.60
2018-04-13T08:41:11.939Z,34.50
2018-04-13T08:43:40.247Z,32.90
2018-04-13T08:46:07.785Z,32.70
2018-04-13T08:48:35.361Z,28.70
2018-04-13T08:51:03.617Z,27.10
2018-04-13T08:53:31.929Z,26.30
2018-04-13T08:55:59.437Z,26.20
2018-04-13T08:58:26.954Z,27.00
2018-04-13T09:00:54.536Z,26.70
2018-04-13T09:03:22.359Z,25.80
2018-04-13T09:05:50.644Z,26.80
2018-04-13T09:08:18.954Z,26.30
2018-04-13T09:10:46.469Z,26.30
2018-04-13T09:13:13.989Z,26.20
2018-04-13T09:15:41.536Z,24.20
2018-04-13T09:18:09.054Z,24.20
2018-04-13T09:20:36.573Z,23.90
2018-04-13T09:23:04.105Z,22.90
2018-04-13T09:25:32.381Z,23.20
2018-04-13T09:28:00.703Z,22.70
2018-04-13T09:30:28.325Z,22.10
2018-04-13T09:32:56.633Z,21.60
2018-04-13T09:35:24.157Z,21.50
2018-04-13T09:37:51.673Z,21.10
2018-04-13T09:40:19.184Z,21.10
2018-04-13T09:42:46.693Z,21.30
2018-04-13T09:45:14.240Z,19.60
2018-04-13T09:47:42.517Z,20.70
2018-04-13T09:50:10.800Z,19.30
2018-04-13T09:52:39.106Z,20.30
2018-04-13T09:55:06.645Z,20.20
2018-04-13T09:57:34.922Z,18.80
2018-04-13T10:00:03.258Z,18.90
2018-04-13T10:02:36.495Z,18.90
2018-04-13T10:05:10.508Z,18.60
2018-04-13T10:07:38.794Z,19.60
2018-04-13T10:10:07.079Z,19.20
2018-04-13T10:12:35.385Z,20.10
2018-04-13T10:15:02.927Z,20.10
2018-04-13T10:17:31.196Z,20.70
2018-04-13T10:19:58.720Z,20.70
2018-04-13T10:22:26.245Z,20.00
2018-04-13T10:24:53.812Z,20.70
2018-04-13T10:27:21.337Z,20.00
2018-04-13T10:29:48.854Z,20.10
2018-04-13T10:32:16.366Z,20.10
2018-04-13T10:34:43.943Z,20.40
2018-04-13T10:37:11.470Z,20.80
2018-04-13T10:39:38.980Z,21.50
2018-04-13T10:42:07.304Z,23.50
2018-04-13T10:44:34.813Z,23.40
2018-04-13T10:47:02.337Z,24.80
2018-04-13T10:49:29.873Z,24.80
2018-04-13T10:51:57.387Z,23.00
2018-04-13T10:54:24.912Z,21.80
2018-04-13T10:56:52.457Z,20.50
2018-04-13T10:59:20.732Z,19.50
2018-04-13T11:01:49.018Z,20.90
2018-04-13T11:04:17.333Z,22.20
2018-04-13T11:06:44.958Z,22.10
2018-04-13T11:09:13.251Z,25.40
2018-04-13T11:11:40.798Z,25.30
2018-04-13T11:14:09.123Z,35.70
2018-04-13T11:16:36.628Z,36.00
2018-04-13T11:19:04.158Z,37.40
2018-04-13T11:21:31.681Z,39.00
2018-04-13T11:23:59.214Z,39.00
2018-04-13T11:26:26.762Z,36.90
2018-04-13T11:28:54.297Z,37.40
2018-04-13T11:31:21.844Z,35.40
2018-04-13T11:33:50.138Z,33.80
2018-04-13T11:36:17.661Z,33.80
2018-04-13T11:38:45.952Z,34.30
2018-04-13T11:41:14.267Z,35.50
2018-04-13T11:43:41.793Z,35.70
2018-04-13T11:46:10.070Z,35.30
2018-04-13T11:48:37.618Z,35.30
2018-04-13T11:51:05.153Z,35.50
2018-04-13T11:53:32.678Z,35.20
2018-04-13T11:56:00.968Z,34.30
2018-04-13T11:58:29.348Z,34.30
2018-04-13T12:00:57.630Z,34.50
2018-04-13T12:03:25.925Z,33.90
2018-04-13T12:05:53.445Z,33.90
2018-04-13T12:08:21.905Z,33.60
2018-04-13T12:10:49.438Z,33.60
2018-04-13T12:13:16.969Z,34.10
2018-04-13T12:15:44.513Z,35.10
2018-04-13T12:18:12.017Z,35.30
2018-04-13T12:20:40.341Z,37.50
2018-04-13T12:23:07.852Z,37.40
2018-04-13T12:25:36.139Z,38.70
2018-04-13T12:28:04.419Z,39.60
2018-04-13T12:30:32.689Z,40.30
2018-04-13T12:33:00.217Z,40.30
2018-04-13T12:35:27.727Z,41.50
2018-04-13T12:37:56.007Z,40.70
2018-04-13T12:40:24.293Z,40.50
2018-04-13T12:42:52.600Z,40.90
2018-04-13T12:45:20.113Z,40.80
2018-04-13T12:47:47.678Z,40.30
2018-04-13T12:50:15.961Z,40.10
2018-04-13T12:52:44.306Z,39.80
2018-04-13T12:55:12.045Z,39.70
2018-04-13T12:57:39.424Z,39.60
2018-04-13T13:00:06.937Z,38.30
2018-04-13T13:02:34.464Z,37.40
2018-04-13T13:05:02.125Z,35.90
2018-04-13T13:07:29.665Z,34.20
2018-04-13T13:09:58.032Z,31.90
2018-04-13T13:12:25.630Z,31.80
2018-04-13T13:14:53.145Z,30.50
2018-04-13T13:17:20.673Z,26.90
2018-04-13T13:19:48.191Z,25.80
2018-04-13T13:22:16.477Z,23.80
2018-04-13T13:24:44.810Z,22.80
2018-04-13T13:27:12.313Z,22.70
2018-04-13T13:29:39.849Z,22.10
2018-04-13T13:32:07.390Z,22.10
2018-04-13T13:34:34.897Z,22.10
2018-04-13T13:37:03.168Z,22.40
2018-04-13T13:39:32.223Z,23.60
2018-04-13T13:41:59.725Z,23.60
2018-04-13T13:44:27.280Z,25.80
2018-04-13T13:46:54.941Z,26.10
2018-04-13T13:49:22.453Z,27.40
2018-04-13T13:51:50.734Z,29.10
2018-04-13T13:54:19.037Z,30.30
2018-04-13T13:56:46.550Z,30.20
2018-04-13T13:59:15.037Z,30.50
2018-04-13T14:01:42.581Z,31.20
2018-04-13T14:04:10.096Z,32.30
2018-04-13T14:06:38.372Z,32.40
2018-04-13T14:09:06.668Z,33.00
2018-04-13T14:11:34.219Z,33.00
2018-04-13T14:14:01.772Z,32.80
2018-04-13T14:16:30.103Z,34.10
2018-04-13T14:18:57.700Z,34.00
2018-04-13T14:21:25.201Z,33.80
2018-04-13T14:23:53.489Z,34.30
2018-04-13T14:26:21.000Z,34.20
2018-04-13T14:28:48.551Z,37.30
2018-04-13T14:31:16.114Z,41.80
2018-04-13T14:33:43.644Z,43.60
2018-04-13T14:36:11.942Z,45.00
2018-04-13T14:38:39.489Z,45.00
2018-04-13T14:41:07.026Z,45.80
2018-04-13T14:43:34.561Z,44.00
2018-04-13T14:46:02.093Z,45.70
2018-04-13T14:48:29.607Z,55.70
2018-04-13T14:50:57.155Z,71.90
2018-04-13T14:53:24.706Z,76.70
2018-04-13T14:55:52.246Z,76.40
2018-04-13T14:58:19.745Z,76.30
2018-04-13T15:00:47.273Z,79.50
2018-04-13T15:03:14.786Z,79.00
2018-04-13T15:05:42.290Z,79.10
2018-04-13T15:08:10.629Z,81.00
2018-04-13T15:10:38.146Z,80.90
2018-04-13T15:13:05.751Z,82.80
2018-04-13T15:15:33.264Z,82.50
2018-04-13T15:18:01.542Z,79.20
2018-04-13T15:20:29.830Z,77.10
2018-04-13T15:22:58.119Z,75.20
2018-04-13T15:25:25.669Z,75.10
2018-04-13T15:27:53.946Z,78.00
2018-04-13T15:30:22.285Z,77.60
2018-04-13T15:32:49.809Z,77.40
2018-04-13T15:35:17.355Z,77.00
2018-04-13T15:37:45.771Z,77.10
2018-04-13T15:40:13.329Z,77.20
2018-04-13T15:42:41.643Z,78.20
2018-04-13T15:45:09.225Z,78.00
2018-04-13T15:47:37.525Z,78.50
2018-04-13T15:50:05.045Z,78.40
2018-04-13T15:52:32.668Z,78.90
2018-04-13T15:55:00.381Z,79.00
2018-04-13T15:57:29.487Z,78.90
2018-04-13T15:59:57.018Z,78.90
2018-04-13T16:02:24.571Z,78.50
2018-04-13T16:04:52.429Z,77.20
2018-04-13T16:07:20.761Z,78.80
2018-04-13T16:09:48.281Z,78.70
2018-04-13T16:12:16.569Z,75.20
2018-04-13T16:14:45.419Z,76.10
2018-04-13T16:17:13.737Z,77.40
2018-04-13T16:19:42.016Z,75.50
2018-04-13T16:22:10.312Z,77.60
2018-04-13T16:24:38.589Z,75.70
2018-04-13T16:27:06.133Z,75.70
2018-04-13T16:29:34.463Z,76.40
2018-04-13T16:32:01.991Z,76.30
2018-04-13T16:34:30.279Z,74.10
2018-04-13T16:36:58.625Z,73.10
2018-04-13T16:39:26.170Z,73.00
2018-04-13T16:41:54.494Z,76.60
2018-04-13T16:44:22.078Z,76.60
2018-04-13T16:46:50.366Z,74.50
2018-04-13T16:49:17.898Z,74.50
2018-04-13T16:51:46.231Z,72.60
2018-04-13T16:54:13.759Z,72.50
2018-04-13T16:56:42.054Z,73.40
2018-04-13T16:59:09.637Z,73.40
2018-04-13T17:01:37.149Z,73.10
2018-04-13T17:04:04.665Z,73.70
2018-04-13T17:06:32.189Z,71.30
2018-04-13T17:09:00.485Z,70.40
2018-04-13T17:11:28.749Z,70.70
2018-04-13T17:13:57.066Z,71.40
2018-04-13T17:16:24.780Z,71.40
2018-04-13T17:18:52.290Z,72.30
2018-04-13T17:21:19.810Z,71.50
2018-04-13T17:23:47.325Z,70.70
2018-04-13T17:26:14.825Z,70.30
2018-04-13T17:28:42.350Z,71.10
2018-04-13T17:31:09.862Z,71.40
2018-04-13T17:33:38.148Z,72.00
2018-04-13T17:36:07.196Z,71.30
2018-04-13T17:38:34.758Z,71.30
2018-04-13T17:41:02.319Z,70.30
2018-04-13T17:43:29.838Z,71.50
2018-04-13T17:45:57.341Z,72.20
2018-04-13T17:48:24.863Z,73.50
2018-04-13T17:50:53.241Z,72.50
2018-04-13T17:53:20.742Z,72.40
2018-04-13T17:55:49.022Z,71.60
2018-04-13T17:58:17.342Z,72.50
2018-04-13T18:00:44.898Z,72.40
2018-04-13T18:03:12.405Z,73.50
2018-04-13T18:05:39.971Z,72.20
2018-04-13T18:08:07.478Z,72.10
2018-04-13T18:10:34.985Z,71.10
2018-04-13T18:13:02.549Z,71.60
2018-04-13T18:15:30.053Z,72.50
2018-04-13T18:17:58.378Z,71.90
2018-04-13T18:20:27.863Z,71.80
2018-04-13T18:22:55.397Z,72.00
2018-04-13T18:25:22.916Z,72.10
2018-04-13T18:27:50.456Z,73.20
2018-04-13T18:30:18.051Z,71.00
2018-04-13T18:32:45.563Z,71.40
2018-04-13T18:35:13.849Z,73.20
2018-04-13T18:37:42.122Z,72.80
2018-04-13T18:40:10.433Z,73.60
2018-04-13T18:42:37.987Z,73.60
2018-04-13T18:45:05.504Z,72.10
2018-04-13T18:47:33.005Z,72.60
2018-04-13T18:50:01.326Z,73.20
2018-04-13T18:52:28.867Z,73.20
2018-04-13T18:54:56.381Z,73.00
2018-04-13T18:57:24.701Z,73.50
2018-04-13T18:59:52.201Z,73.60
2018-04-13T19:02:19.721Z,73.70
2018-04-13T19:04:48.068Z,73.70
2018-04-13T19:07:15.583Z,73.60
2018-04-13T19:09:43.114Z,73.30
2018-04-13T19:12:11.405Z,73.30
2018-04-13T19:14:39.717Z,73.80
2018-04-13T19:17:07.972Z,73.10
2018-04-13T19:19:36.317Z,73.60
2018-04-13T19:22:03.826Z,73.60
2018-04-13T19:24:32.120Z,74.40
2018-04-13T19:26:59.650Z,74.30
2018-04-13T19:29:27.168Z,73.50
2018-04-13T19:31:54.694Z,74.10
2018-04-13T19:34:23.043Z,74.70
2018-04-13T19:36:50.567Z,74.60
2018-04-13T19:39:18.069Z,74.00
2018-04-13T19:41:45.596Z,75.10
2018-04-13T19:44:13.128Z,75.20
2018-04-13T19:46:41.423Z,75.60
2018-04-13T19:49:09.722Z,75.30
2018-04-13T19:51:37.295Z,75.20
2018-04-13T19:54:04.814Z,75.00
2018-04-13T19:56:33.122Z,74.80
2018-04-13T19:59:00.705Z,74.70
2018-04-13T20:01:28.225Z,74.20
2018-04-13T20:03:56.517Z,75.60
2018-04-13T20:06:24.039Z,75.60
2018-04-13T20:08:51.585Z,74.50
2018-04-13T20:11:19.127Z,75.00
2018-04-13T20:13:46.637Z,75.40
2018-04-13T20:16:20.989Z,74.80
2018-04-13T20:18:49.265Z,75.20
2018-04-13T20:21:16.859Z,75.10
2018-04-13T20:23:44.629Z,74.90
2018-04-13T20:26:12.133Z,74.90
2018-04-13T20:28:39.641Z,75.10
2018-04-13T20:31:07.951Z,74.70
2018-04-13T20:33:35.503Z,74.70
2018-04-13T20:36:03.069Z,74.30
2018-04-13T20:38:30.595Z,74.00
2018-04-13T20:40:58.888Z,74.70
2018-04-13T20:43:27.650Z,74.90
2018-04-13T20:45:55.964Z,74.70
2018-04-13T20:48:24.248Z,74.80
2018-04-13T20:50:52.534Z,75.50
2018-04-13T20:53:20.837Z,75.80
2018-04-13T20:55:48.416Z,75.80
2018-04-13T20:58:16.052Z,76.40
2018-04-13T21:00:43.683Z,76.40
2018-04-13T21:03:11.345Z,77.00
2018-04-13T21:05:38.863Z,76.90
2018-04-13T21:08:06.424Z,76.60
2018-04-13T21:10:34.013Z,77.00
2018-04-13T21:13:01.690Z,77.60
2018-04-13T21:15:29.320Z,77.80
2018-04-13T21:17:57.150Z,77.10
2018-04-13T21:20:25.615Z,77.30
2018-04-13T21:22:53.343Z,77.10
2018-04-13T21:25:21.942Z,76.10
2018-04-13T21:27:49.585Z,76.10
2018-04-13T21:30:17.113Z,76.70
2018-04-13T21:32:44.782Z,77.00
2018-04-13T21:35:13.229Z,77.10
2018-04-13T21:37:40.859Z,77.10
2018-04-13T21:40:08.409Z,77.40
2018-04-13T21:42:35.962Z,77.10
2018-04-13T21:45:03.533Z,77.20
2018-04-13T21:47:31.068Z,77.10
2018-04-13T21:49:58.573Z,77.60
2018-04-13T21:52:26.113Z,77.70
2018-04-13T21:54:53.627Z,77.80
2018-04-13T21:57:21.263Z,77.20
2018-04-13T21:59:48.789Z,77.50
2018-04-13T22:02:16.306Z,76.70
2018-04-13T22:04:44.583Z,79.00
2018-04-13T22:07:12.882Z,78.40
2018-04-13T22:09:40.386Z,78.40
2018-04-13T22:12:19.644Z,77.80
2018-04-13T22:14:54.723Z,77.40
2018-04-13T22:17:22.250Z,77.40
2018-04-13T22:19:49.768Z,77.50
2018-04-13T22:22:17.306Z,77.00
2018-04-13T22:24:45.057Z,78.40
2018-04-13T22:27:13.349Z,79.10
2018-04-13T22:29:41.642Z,79.50
2018-04-13T22:32:09.177Z,79.40
2018-04-13T22:34:36.917Z,79.70
2018-04-13T22:37:05.964Z,78.70
2018-04-13T22:39:33.562Z,78.70
2018-04-13T22:42:01.118Z,78.70
2018-04-13T22:44:28.636Z,79.70
2018-04-13T22:46:56.173Z,79.50
2018-04-13T22:49:23.682Z,80.40
2018-04-13T22:51:53.999Z,80.20
2018-04-13T22:54:22.311Z,80.60
2018-04-13T22:56:49.954Z,80.50
2018-04-13T22:59:18.220Z,80.80
2018-04-13T23:01:46.523Z,80.80
2018-04-13T23:04:14.026Z,80.70
2018-04-13T23:06:41.589Z,80.70
2018-04-13T23:09:09.197Z,81.10
2018-04-13T23:11:37.565Z,81.90
2018-04-13T23:14:06.582Z,80.70
2018-04-13T23:16:34.876Z,80.70
2018-04-13T23:19:02.502Z,80.60
2018-04-13T23:21:29.973Z,80.00
2018-04-13T23:23:57.526Z,80.00
2018-04-13T23:26:25.334Z,80.60
2018-04-13T23:28:53.605Z,80.80
2018-04-13T23:31:21.908Z,80.50
2018-04-13T23:33:49.445Z,80.50
2018-04-13T23:36:17.725Z,80.00
2018-04-13T23:38:46.401Z,80.80
2018-04-13T23:41:13.966Z,80.80
2018-04-13T23:43:41.482Z,80.60
2018-04-13T23:46:09.020Z,80.70
2018-04-13T23:48:37.294Z,80.80
2018-04-13T23:51:05.569Z,80.80
2018-04-13T23:53:33.863Z,81.10
2018-04-13T23:56:02.146Z,81.00
2018-04-13T23:58:30.437Z,80.80
